sensor_id;sensor_type;location;lat;lon;timestamp;P1;durP1;ratioP1;P2;durP2;ratioP2
80921;SDS011;70374;46.156;18.614;2023-06-22T00:01:16;19.23;;;10.48;;
80921;SDS011;70374;46.156;18.614;2023-06-22T00:04:19;16.33;;;10.00;;
80921;SDS011;70374;46.156;18.614;2023-06-22T00:07:21;16.62;;;9.25;;
80921;SDS011;70374;46.156;18.614;2023-06-22T00:10:24;17.30;;;10.10;;
80921;SDS011;70374;46.156;18.614;2023-06-22T00:13:27;14.63;;;8.87;;
80921;SDS011;70374;46.156;18.614;2023-06-22T00:16:31;19.67;;;9.45;;
80921;SDS011;70374;46.156;18.614;2023-06-22T00:19:34;18.30;;;10.15;;
80921;SDS011;70374;46.156;18.614;2023-06-22T00:22:37;18.12;;;9.60;;
80921;SDS011;70374;46.156;18.614;2023-06-22T00:25:40;16.12;;;10.00;;
80921;SDS011;70374;46.156;18.614;2023-06-22T00:28:43;21.33;;;9.93;;
80921;SDS011;70374;46.156;18.614;2023-06-22T00:31:46;15.77;;;9.77;;
80921;SDS011;70374;46.156;18.614;2023-06-22T00:34:49;14.68;;;10.30;;
80921;SDS011;70374;46.156;18.614;2023-06-22T00:37:52;17.23;;;9.88;;
80921;SDS011;70374;46.156;18.614;2023-06-22T00:41:02;15.75;;;9.65;;
80921;SDS011;70374;46.156;18.614;2023-06-22T00:44:05;17.60;;;9.20;;
80921;SDS011;70374;46.156;18.614;2023-06-22T00:47:09;19.00;;;10.48;;
80921;SDS011;70374;46.156;18.614;2023-06-22T00:50:12;17.58;;;10.02;;
80921;SDS011;70374;46.156;18.614;2023-06-22T00:53:20;19.62;;;10.27;;
80921;SDS011;70374;46.156;18.614;2023-06-22T00:56:23;16.33;;;10.77;;
80921;SDS011;70374;46.156;18.614;2023-06-22T00:59:26;17.57;;;10.13;;
80921;SDS011;70374;46.156;18.614;2023-06-22T01:02:29;17.55;;;10.05;;
80921;SDS011;70374;46.156;18.614;2023-06-22T01:05:32;13.60;;;9.45;;
80921;SDS011;70374;46.156;18.614;2023-06-22T01:12:12;17.90;;;9.88;;
80921;SDS011;70374;46.156;18.614;2023-06-22T01:15:25;17.87;;;9.40;;
80921;SDS011;70374;46.156;18.614;2023-06-22T01:18:40;18.40;;;9.88;;
80921;SDS011;70374;46.156;18.614;2023-06-22T01:21:44;14.75;;;9.18;;
80921;SDS011;70374;46.156;18.614;2023-06-22T01:24:57;20.60;;;9.77;;
80921;SDS011;70374;46.156;18.614;2023-06-22T01:28:10;15.18;;;8.13;;
80921;SDS011;70374;46.156;18.614;2023-06-22T01:31:18;17.10;;;10.03;;
80921;SDS011;70374;46.156;18.614;2023-06-22T01:34:25;14.55;;;9.07;;
80921;SDS011;70374;46.156;18.614;2023-06-22T01:37:30;15.27;;;8.38;;
80921;SDS011;70374;46.156;18.614;2023-06-22T01:40:34;18.67;;;9.25;;
80921;SDS011;70374;46.156;18.614;2023-06-22T01:43:38;14.68;;;9.35;;
80921;SDS011;70374;46.156;18.614;2023-06-22T01:46:42;17.13;;;9.87;;
80921;SDS011;70374;46.156;18.614;2023-06-22T01:49:44;15.43;;;9.00;;
80921;SDS011;70374;46.156;18.614;2023-06-22T01:52:48;15.60;;;10.18;;
80921;SDS011;70374;46.156;18.614;2023-06-22T01:55:51;17.83;;;10.52;;
80921;SDS011;70374;46.156;18.614;2023-06-22T01:58:57;20.83;;;11.43;;
80921;SDS011;70374;46.156;18.614;2023-06-22T02:02:12;16.67;;;11.20;;
80921;SDS011;70374;46.156;18.614;2023-06-22T02:05:19;17.10;;;10.63;;
80921;SDS011;70374;46.156;18.614;2023-06-22T02:08:25;19.87;;;10.57;;
80921;SDS011;70374;46.156;18.614;2023-06-22T02:11:33;17.05;;;10.82;;
80921;SDS011;70374;46.156;18.614;2023-06-22T02:14:38;19.70;;;10.80;;
80921;SDS011;70374;46.156;18.614;2023-06-22T02:17:42;19.53;;;11.57;;
80921;SDS011;70374;46.156;18.614;2023-06-22T02:20:47;16.30;;;10.60;;
80921;SDS011;70374;46.156;18.614;2023-06-22T02:23:50;19.10;;;11.02;;
80921;SDS011;70374;46.156;18.614;2023-06-22T02:26:52;20.20;;;11.98;;
80921;SDS011;70374;46.156;18.614;2023-06-22T02:29:55;18.50;;;11.77;;
80921;SDS011;70374;46.156;18.614;2023-06-22T02:32:58;19.20;;;12.07;;
80921;SDS011;70374;46.156;18.614;2023-06-22T02:36:00;24.10;;;12.52;;
80921;SDS011;70374;46.156;18.614;2023-06-22T02:39:07;21.98;;;13.62;;
80921;SDS011;70374;46.156;18.614;2023-06-22T02:42:11;19.25;;;13.38;;
80921;SDS011;70374;46.156;18.614;2023-06-22T02:45:14;20.92;;;13.80;;
80921;SDS011;70374;46.156;18.614;2023-06-22T02:48:17;20.20;;;12.63;;
80921;SDS011;70374;46.156;18.614;2023-06-22T02:51:20;23.15;;;12.98;;
80921;SDS011;70374;46.156;18.614;2023-06-22T02:54:22;18.25;;;12.32;;
80921;SDS011;70374;46.156;18.614;2023-06-22T02:57:26;21.48;;;13.05;;
80921;SDS011;70374;46.156;18.614;2023-06-22T03:00:28;18.75;;;12.43;;
80921;SDS011;70374;46.156;18.614;2023-06-22T03:03:33;21.00;;;12.37;;
80921;SDS011;70374;46.156;18.614;2023-06-22T03:06:35;19.98;;;12.95;;
80921;SDS011;70374;46.156;18.614;2023-06-22T03:09:38;18.15;;;13.00;;
80921;SDS011;70374;46.156;18.614;2023-06-22T03:12:41;18.45;;;12.10;;
80921;SDS011;70374;46.156;18.614;2023-06-22T03:15:45;23.60;;;12.60;;
80921;SDS011;70374;46.156;18.614;2023-06-22T03:18:48;19.67;;;12.00;;
80921;SDS011;70374;46.156;18.614;2023-06-22T03:21:51;19.23;;;12.77;;
80921;SDS011;70374;46.156;18.614;2023-06-22T03:24:54;16.95;;;11.88;;
80921;SDS011;70374;46.156;18.614;2023-06-22T03:27:56;19.08;;;12.75;;
80921;SDS011;70374;46.156;18.614;2023-06-22T03:31:00;17.58;;;12.13;;
80921;SDS011;70374;46.156;18.614;2023-06-22T03:34:04;18.43;;;12.80;;
80921;SDS011;70374;46.156;18.614;2023-06-22T03:37:07;18.85;;;11.93;;
80921;SDS011;70374;46.156;18.614;2023-06-22T03:40:10;23.35;;;11.55;;
80921;SDS011;70374;46.156;18.614;2023-06-22T03:43:12;19.48;;;11.50;;
80921;SDS011;70374;46.156;18.614;2023-06-22T03:46:15;19.90;;;11.55;;
80921;SDS011;70374;46.156;18.614;2023-06-22T03:49:18;22.50;;;11.90;;
80921;SDS011;70374;46.156;18.614;2023-06-22T03:52:23;18.42;;;11.77;;
80921;SDS011;70374;46.156;18.614;2023-06-22T03:55:27;20.77;;;11.57;;
80921;SDS011;70374;46.156;18.614;2023-06-22T03:58:30;15.55;;;11.05;;
80921;SDS011;70374;46.156;18.614;2023-06-22T04:01:34;18.85;;;10.68;;
80921;SDS011;70374;46.156;18.614;2023-06-22T04:04:37;18.70;;;10.87;;
80921;SDS011;70374;46.156;18.614;2023-06-22T04:07:41;15.90;;;10.80;;
80921;SDS011;70374;46.156;18.614;2023-06-22T04:10:44;17.90;;;10.10;;
80921;SDS011;70374;46.156;18.614;2023-06-22T04:13:47;20.33;;;11.50;;
80921;SDS011;70374;46.156;18.614;2023-06-22T04:16:51;20.00;;;10.48;;
80921;SDS011;70374;46.156;18.614;2023-06-22T04:19:53;16.33;;;10.67;;
80921;SDS011;70374;46.156;18.614;2023-06-22T04:22:56;19.40;;;10.70;;
80921;SDS011;70374;46.156;18.614;2023-06-22T04:25:59;17.73;;;10.65;;
80921;SDS011;70374;46.156;18.614;2023-06-22T04:42:12;15.70;;;9.98;;
80921;SDS011;70374;46.156;18.614;2023-06-22T04:45:15;17.58;;;10.45;;
80921;SDS011;70374;46.156;18.614;2023-06-22T04:48:17;22.17;;;9.93;;
80921;SDS011;70374;46.156;18.614;2023-06-22T04:51:20;19.67;;;11.02;;
80921;SDS011;70374;46.156;18.614;2023-06-22T04:54:23;20.37;;;10.93;;
80921;SDS011;70374;46.156;18.614;2023-06-22T04:57:26;16.80;;;10.70;;
80921;SDS011;70374;46.156;18.614;2023-06-22T05:00:34;19.95;;;10.82;;
80921;SDS011;70374;46.156;18.614;2023-06-22T05:03:38;18.10;;;10.50;;
80921;SDS011;70374;46.156;18.614;2023-06-22T05:06:43;18.95;;;11.25;;
80921;SDS011;70374;46.156;18.614;2023-06-22T05:09:47;18.13;;;11.03;;
80921;SDS011;70374;46.156;18.614;2023-06-22T05:12:50;20.10;;;11.07;;
80921;SDS011;70374;46.156;18.614;2023-06-22T05:15:52;22.87;;;10.85;;
80921;SDS011;70374;46.156;18.614;2023-06-22T05:19:03;16.67;;;10.85;;
80921;SDS011;70374;46.156;18.614;2023-06-22T05:22:06;17.02;;;11.18;;
80921;SDS011;70374;46.156;18.614;2023-06-22T05:25:10;17.10;;;11.57;;
80921;SDS011;70374;46.156;18.614;2023-06-22T05:28:13;21.25;;;11.60;;
80921;SDS011;70374;46.156;18.614;2023-06-22T05:31:16;17.08;;;11.77;;
80921;SDS011;70374;46.156;18.614;2023-06-22T05:34:19;21.20;;;10.85;;
80921;SDS011;70374;46.156;18.614;2023-06-22T05:37:22;20.48;;;11.05;;
80921;SDS011;70374;46.156;18.614;2023-06-22T05:40:24;21.27;;;11.30;;
80921;SDS011;70374;46.156;18.614;2023-06-22T05:43:27;19.20;;;11.32;;
80921;SDS011;70374;46.156;18.614;2023-06-22T05:46:30;22.27;;;12.27;;
80921;SDS011;70374;46.156;18.614;2023-06-22T05:49:33;23.38;;;12.07;;
80921;SDS011;70374;46.156;18.614;2023-06-22T05:52:35;19.73;;;11.90;;
80921;SDS011;70374;46.156;18.614;2023-06-22T05:55:38;18.67;;;11.87;;
80921;SDS011;70374;46.156;18.614;2023-06-22T05:58:41;19.08;;;11.82;;
80921;SDS011;70374;46.156;18.614;2023-06-22T06:01:43;17.48;;;11.20;;
80921;SDS011;70374;46.156;18.614;2023-06-22T06:04:46;18.52;;;11.80;;
80921;SDS011;70374;46.156;18.614;2023-06-22T06:07:49;18.75;;;12.20;;
80921;SDS011;70374;46.156;18.614;2023-06-22T06:10:51;21.43;;;12.13;;
80921;SDS011;70374;46.156;18.614;2023-06-22T06:13:55;18.02;;;11.20;;
80921;SDS011;70374;46.156;18.614;2023-06-22T06:16:58;17.42;;;10.65;;
80921;SDS011;70374;46.156;18.614;2023-06-22T06:20:00;19.87;;;10.65;;
80921;SDS011;70374;46.156;18.614;2023-06-22T06:23:03;19.77;;;10.98;;
80921;SDS011;70374;46.156;18.614;2023-06-22T06:26:06;24.83;;;10.93;;
80921;SDS011;70374;46.156;18.614;2023-06-22T06:29:09;17.37;;;11.55;;
80921;SDS011;70374;46.156;18.614;2023-06-22T06:32:11;18.85;;;10.98;;
80921;SDS011;70374;46.156;18.614;2023-06-22T06:35:14;19.60;;;11.40;;
80921;SDS011;70374;46.156;18.614;2023-06-22T06:38:18;22.65;;;11.77;;
80921;SDS011;70374;46.156;18.614;2023-06-22T06:41:21;18.20;;;11.97;;
80921;SDS011;70374;46.156;18.614;2023-06-22T06:44:23;18.58;;;11.30;;
80921;SDS011;70374;46.156;18.614;2023-06-22T06:47:26;22.73;;;11.35;;
80921;SDS011;70374;46.156;18.614;2023-06-22T06:50:29;21.35;;;11.85;;
80921;SDS011;70374;46.156;18.614;2023-06-22T06:53:31;21.05;;;12.32;;
80921;SDS011;70374;46.156;18.614;2023-06-22T06:56:34;16.83;;;11.30;;
80921;SDS011;70374;46.156;18.614;2023-06-22T06:59:37;25.05;;;12.07;;
80921;SDS011;70374;46.156;18.614;2023-06-22T07:02:39;18.23;;;12.30;;
80921;SDS011;70374;46.156;18.614;2023-06-22T07:05:43;35.75;;;12.95;;
80921;SDS011;70374;46.156;18.614;2023-06-22T07:08:46;17.50;;;11.75;;
80921;SDS011;70374;46.156;18.614;2023-06-22T07:11:48;19.57;;;12.63;;
80921;SDS011;70374;46.156;18.614;2023-06-22T07:14:54;16.10;;;11.98;;
80921;SDS011;70374;46.156;18.614;2023-06-22T07:18:03;21.05;;;12.00;;
80921;SDS011;70374;46.156;18.614;2023-06-22T07:21:05;18.35;;;12.32;;
80921;SDS011;70374;46.156;18.614;2023-06-22T07:24:09;22.80;;;13.90;;
80921;SDS011;70374;46.156;18.614;2023-06-22T07:27:11;19.63;;;12.63;;
80921;SDS011;70374;46.156;18.614;2023-06-22T07:30:14;27.50;;;13.23;;
80921;SDS011;70374;46.156;18.614;2023-06-22T07:33:17;18.95;;;12.20;;
80921;SDS011;70374;46.156;18.614;2023-06-22T07:36:20;22.58;;;12.40;;
80921;SDS011;70374;46.156;18.614;2023-06-22T07:39:22;24.63;;;12.23;;
80921;SDS011;70374;46.156;18.614;2023-06-22T07:42:28;22.70;;;14.47;;
80921;SDS011;70374;46.156;18.614;2023-06-22T07:45:32;22.42;;;13.65;;
80921;SDS011;70374;46.156;18.614;2023-06-22T07:48:37;20.60;;;14.13;;
80921;SDS011;70374;46.156;18.614;2023-06-22T07:51:40;27.65;;;12.70;;
80921;SDS011;70374;46.156;18.614;2023-06-22T07:54:43;28.75;;;13.27;;
80921;SDS011;70374;46.156;18.614;2023-06-22T07:57:47;22.20;;;12.60;;
80921;SDS011;70374;46.156;18.614;2023-06-22T08:00:51;24.20;;;12.80;;
80921;SDS011;70374;46.156;18.614;2023-06-22T08:03:54;19.52;;;13.27;;
80921;SDS011;70374;46.156;18.614;2023-06-22T08:06:57;21.52;;;13.75;;
80921;SDS011;70374;46.156;18.614;2023-06-22T08:09:59;20.02;;;14.02;;
80921;SDS011;70374;46.156;18.614;2023-06-22T08:13:02;20.70;;;13.00;;
80921;SDS011;70374;46.156;18.614;2023-06-22T08:16:05;23.90;;;12.80;;
80921;SDS011;70374;46.156;18.614;2023-06-22T08:19:09;20.55;;;12.93;;
80921;SDS011;70374;46.156;18.614;2023-06-22T08:22:11;18.35;;;12.80;;
80921;SDS011;70374;46.156;18.614;2023-06-22T08:25:15;19.85;;;12.73;;
80921;SDS011;70374;46.156;18.614;2023-06-22T08:28:18;21.27;;;12.53;;
80921;SDS011;70374;46.156;18.614;2023-06-22T08:31:20;26.20;;;13.05;;
80921;SDS011;70374;46.156;18.614;2023-06-22T08:34:23;17.10;;;12.37;;
80921;SDS011;70374;46.156;18.614;2023-06-22T08:37:29;22.02;;;12.80;;
80921;SDS011;70374;46.156;18.614;2023-06-22T08:40:37;26.42;;;13.70;;
80921;SDS011;70374;46.156;18.614;2023-06-22T08:43:40;20.30;;;13.10;;
80921;SDS011;70374;46.156;18.614;2023-06-22T08:46:42;17.40;;;12.50;;
80921;SDS011;70374;46.156;18.614;2023-06-22T08:49:45;20.40;;;13.77;;
80921;SDS011;70374;46.156;18.614;2023-06-22T08:52:48;34.15;;;12.75;;
80921;SDS011;70374;46.156;18.614;2023-06-22T08:55:50;21.52;;;12.45;;
80921;SDS011;70374;46.156;18.614;2023-06-22T08:58:53;21.80;;;11.97;;
80921;SDS011;70374;46.156;18.614;2023-06-22T09:01:56;23.08;;;13.65;;
80921;SDS011;70374;46.156;18.614;2023-06-22T09:05:02;18.85;;;12.35;;
80921;SDS011;70374;46.156;18.614;2023-06-22T09:08:05;17.58;;;12.60;;
80921;SDS011;70374;46.156;18.614;2023-06-22T09:11:08;16.02;;;11.95;;
80921;SDS011;70374;46.156;18.614;2023-06-22T09:14:11;17.57;;;11.57;;
80921;SDS011;70374;46.156;18.614;2023-06-22T09:17:13;17.50;;;11.65;;
80921;SDS011;70374;46.156;18.614;2023-06-22T09:20:16;20.12;;;11.38;;
80921;SDS011;70374;46.156;18.614;2023-06-22T09:23:19;17.52;;;12.10;;
80921;SDS011;70374;46.156;18.614;2023-06-22T09:26:22;16.35;;;12.20;;
80921;SDS011;70374;46.156;18.614;2023-06-22T09:29:26;16.10;;;11.63;;
80921;SDS011;70374;46.156;18.614;2023-06-22T09:32:28;19.48;;;11.98;;
80921;SDS011;70374;46.156;18.614;2023-06-22T09:35:31;22.23;;;11.68;;
80921;SDS011;70374;46.156;18.614;2023-06-22T09:38:37;14.60;;;10.70;;
80921;SDS011;70374;46.156;18.614;2023-06-22T09:41:40;17.45;;;11.88;;
80921;SDS011;70374;46.156;18.614;2023-06-22T09:44:42;18.03;;;11.10;;
80921;SDS011;70374;46.156;18.614;2023-06-22T09:47:45;17.70;;;12.35;;
80921;SDS011;70374;46.156;18.614;2023-06-22T09:50:48;16.27;;;11.23;;
80921;SDS011;70374;46.156;18.614;2023-06-22T09:53:51;18.25;;;10.38;;
80921;SDS011;70374;46.156;18.614;2023-06-22T09:56:55;17.05;;;10.25;;
80921;SDS011;70374;46.156;18.614;2023-06-22T09:59:58;17.00;;;10.80;;
80921;SDS011;70374;46.156;18.614;2023-06-22T10:03:01;18.98;;;10.20;;
80921;SDS011;70374;46.156;18.614;2023-06-22T10:06:04;17.90;;;10.68;;
80921;SDS011;70374;46.156;18.614;2023-06-22T10:09:07;17.67;;;11.77;;
80921;SDS011;70374;46.156;18.614;2023-06-22T10:12:10;19.17;;;12.35;;
80921;SDS011;70374;46.156;18.614;2023-06-22T10:15:13;14.73;;;9.87;;
80921;SDS011;70374;46.156;18.614;2023-06-22T10:18:17;14.95;;;10.43;;
80921;SDS011;70374;46.156;18.614;2023-06-22T10:21:20;15.80;;;11.20;;
80921;SDS011;70374;46.156;18.614;2023-06-22T10:24:23;17.52;;;10.98;;
80921;SDS011;70374;46.156;18.614;2023-06-22T10:27:25;20.80;;;11.15;;
80921;SDS011;70374;46.156;18.614;2023-06-22T10:30:28;15.70;;;10.77;;
80921;SDS011;70374;46.156;18.614;2023-06-22T10:33:31;13.13;;;9.27;;
80921;SDS011;70374;46.156;18.614;2023-06-22T10:36:33;15.35;;;10.75;;
80921;SDS011;70374;46.156;18.614;2023-06-22T10:39:36;17.42;;;11.27;;
80921;SDS011;70374;46.156;18.614;2023-06-22T10:42:39;16.05;;;11.15;;
80921;SDS011;70374;46.156;18.614;2023-06-22T10:45:41;15.47;;;11.13;;
80921;SDS011;70374;46.156;18.614;2023-06-22T10:48:44;15.23;;;10.23;;
80921;SDS011;70374;46.156;18.614;2023-06-22T10:51:46;17.15;;;11.15;;
80921;SDS011;70374;46.156;18.614;2023-06-22T10:54:49;16.83;;;11.45;;
80921;SDS011;70374;46.156;18.614;2023-06-22T10:57:52;18.92;;;11.30;;
80921;SDS011;70374;46.156;18.614;2023-06-22T11:00:54;17.50;;;11.60;;
80921;SDS011;70374;46.156;18.614;2023-06-22T11:03:57;15.95;;;10.50;;
80921;SDS011;70374;46.156;18.614;2023-06-22T11:07:00;17.75;;;10.05;;
80921;SDS011;70374;46.156;18.614;2023-06-22T11:10:02;15.13;;;10.18;;
80921;SDS011;70374;46.156;18.614;2023-06-22T11:13:05;21.45;;;11.75;;
80921;SDS011;70374;46.156;18.614;2023-06-22T11:16:11;17.13;;;10.90;;
80921;SDS011;70374;46.156;18.614;2023-06-22T11:19:14;17.52;;;11.30;;
80921;SDS011;70374;46.156;18.614;2023-06-22T11:22:17;19.45;;;12.43;;
80921;SDS011;70374;46.156;18.614;2023-06-22T11:25:20;19.10;;;11.65;;
80921;SDS011;70374;46.156;18.614;2023-06-22T11:28:22;15.68;;;10.68;;
80921;SDS011;70374;46.156;18.614;2023-06-22T11:31:25;22.30;;;11.50;;
80921;SDS011;70374;46.156;18.614;2023-06-22T11:34:27;19.33;;;10.57;;
80921;SDS011;70374;46.156;18.614;2023-06-22T11:37:30;18.85;;;11.68;;
80921;SDS011;70374;46.156;18.614;2023-06-22T11:40:32;16.27;;;11.32;;
80921;SDS011;70374;46.156;18.614;2023-06-22T11:43:35;20.45;;;11.27;;
80921;SDS011;70374;46.156;18.614;2023-06-22T11:46:39;20.03;;;11.43;;
80921;SDS011;70374;46.156;18.614;2023-06-22T11:49:42;19.48;;;11.02;;
80921;SDS011;70374;46.156;18.614;2023-06-22T11:52:44;20.45;;;11.10;;
80921;SDS011;70374;46.156;18.614;2023-06-22T11:55:47;17.12;;;10.27;;
80921;SDS011;70374;46.156;18.614;2023-06-22T11:58:51;15.30;;;10.05;;
80921;SDS011;70374;46.156;18.614;2023-06-22T12:01:53;21.80;;;10.17;;
80921;SDS011;70374;46.156;18.614;2023-06-22T12:04:56;20.17;;;11.25;;
80921;SDS011;70374;46.156;18.614;2023-06-22T12:08:00;19.83;;;10.25;;
80921;SDS011;70374;46.156;18.614;2023-06-22T12:11:03;19.52;;;10.32;;
80921;SDS011;70374;46.156;18.614;2023-06-22T12:14:05;17.23;;;9.65;;
80921;SDS011;70374;46.156;18.614;2023-06-22T12:17:08;18.93;;;10.37;;
80921;SDS011;70374;46.156;18.614;2023-06-22T12:20:10;16.70;;;10.23;;
80921;SDS011;70374;46.156;18.614;2023-06-22T12:23:14;17.17;;;9.48;;
80921;SDS011;70374;46.156;18.614;2023-06-22T12:26:17;21.10;;;10.20;;
80921;SDS011;70374;46.156;18.614;2023-06-22T12:29:19;13.65;;;9.50;;
80921;SDS011;70374;46.156;18.614;2023-06-22T12:32:22;17.37;;;9.47;;
80921;SDS011;70374;46.156;18.614;2023-06-22T12:35:25;20.42;;;8.82;;
80921;SDS011;70374;46.156;18.614;2023-06-22T12:38:27;17.05;;;8.80;;
80921;SDS011;70374;46.156;18.614;2023-06-22T12:41:30;17.50;;;8.68;;
80921;SDS011;70374;46.156;18.614;2023-06-22T12:44:32;18.42;;;9.57;;
80921;SDS011;70374;46.156;18.614;2023-06-22T12:47:35;16.57;;;9.37;;
80921;SDS011;70374;46.156;18.614;2023-06-22T12:50:38;13.13;;;8.65;;
80921;SDS011;70374;46.156;18.614;2023-06-22T12:53:40;16.37;;;8.95;;
80921;SDS011;70374;46.156;18.614;2023-06-22T12:56:43;16.02;;;8.27;;
80921;SDS011;70374;46.156;18.614;2023-06-22T12:59:47;15.45;;;9.27;;
80921;SDS011;70374;46.156;18.614;2023-06-22T13:02:49;17.43;;;9.13;;
80921;SDS011;70374;46.156;18.614;2023-06-22T13:05:53;16.35;;;9.15;;
80921;SDS011;70374;46.156;18.614;2023-06-22T13:08:56;16.42;;;9.20;;
80921;SDS011;70374;46.156;18.614;2023-06-22T13:12:22;16.45;;;9.40;;
80921;SDS011;70374;46.156;18.614;2023-06-22T13:15:24;16.20;;;8.88;;
80921;SDS011;70374;46.156;18.614;2023-06-22T13:18:27;20.50;;;9.00;;
80921;SDS011;70374;46.156;18.614;2023-06-22T13:21:30;18.52;;;7.82;;
80921;SDS011;70374;46.156;18.614;2023-06-22T13:24:33;16.20;;;8.77;;
80921;SDS011;70374;46.156;18.614;2023-06-22T13:27:35;19.65;;;8.45;;
80921;SDS011;70374;46.156;18.614;2023-06-22T13:30:38;18.77;;;7.90;;
80921;SDS011;70374;46.156;18.614;2023-06-22T13:33:40;20.40;;;8.37;;
80921;SDS011;70374;46.156;18.614;2023-06-22T13:36:43;19.17;;;8.15;;
80921;SDS011;70374;46.156;18.614;2023-06-22T13:39:45;19.73;;;8.07;;
80921;SDS011;70374;46.156;18.614;2023-06-22T13:42:48;12.50;;;8.40;;
80921;SDS011;70374;46.156;18.614;2023-06-22T13:45:51;15.90;;;7.75;;
80921;SDS011;70374;46.156;18.614;2023-06-22T13:48:53;18.37;;;7.87;;
80921;SDS011;70374;46.156;18.614;2023-06-22T13:51:57;12.20;;;7.32;;
80921;SDS011;70374;46.156;18.614;2023-06-22T13:55:00;14.48;;;8.05;;
80921;SDS011;70374;46.156;18.614;2023-06-22T13:58:03;13.80;;;8.02;;
80921;SDS011;70374;46.156;18.614;2023-06-22T14:01:05;13.60;;;7.15;;
80921;SDS011;70374;46.156;18.614;2023-06-22T14:04:09;15.50;;;7.90;;
80921;SDS011;70374;46.156;18.614;2023-06-22T14:07:12;15.45;;;7.87;;
80921;SDS011;70374;46.156;18.614;2023-06-22T14:10:18;14.00;;;8.15;;
80921;SDS011;70374;46.156;18.614;2023-06-22T14:13:20;19.45;;;8.40;;
80921;SDS011;70374;46.156;18.614;2023-06-22T14:16:23;16.30;;;8.63;;
80921;SDS011;70374;46.156;18.614;2023-06-22T14:19:25;18.13;;;8.27;;
80921;SDS011;70374;46.156;18.614;2023-06-22T14:22:28;14.73;;;7.10;;
80921;SDS011;70374;46.156;18.614;2023-06-22T14:25:31;17.42;;;7.28;;
80921;SDS011;70374;46.156;18.614;2023-06-22T14:28:34;17.58;;;7.75;;
80921;SDS011;70374;46.156;18.614;2023-06-22T14:31:36;16.27;;;7.40;;
80921;SDS011;70374;46.156;18.614;2023-06-22T14:34:39;22.33;;;7.67;;
80921;SDS011;70374;46.156;18.614;2023-06-22T14:37:42;15.00;;;7.45;;
80921;SDS011;70374;46.156;18.614;2023-06-22T14:40:45;16.42;;;6.65;;
80921;SDS011;70374;46.156;18.614;2023-06-22T14:43:54;13.82;;;6.30;;
80921;SDS011;70374;46.156;18.614;2023-06-22T14:46:57;17.95;;;7.53;;
80921;SDS011;70374;46.156;18.614;2023-06-22T14:49:59;13.47;;;6.93;;
80921;SDS011;70374;46.156;18.614;2023-06-22T14:53:02;16.15;;;6.82;;
80921;SDS011;70374;46.156;18.614;2023-06-22T14:56:05;21.02;;;6.82;;
80921;SDS011;70374;46.156;18.614;2023-06-22T14:59:09;14.25;;;7.15;;
80921;SDS011;70374;46.156;18.614;2023-06-22T15:02:11;18.35;;;6.82;;
80921;SDS011;70374;46.156;18.614;2023-06-22T15:05:14;16.60;;;6.70;;
80921;SDS011;70374;46.156;18.614;2023-06-22T15:08:16;13.60;;;6.32;;
80921;SDS011;70374;46.156;18.614;2023-06-22T15:11:19;14.45;;;6.60;;
80921;SDS011;70374;46.156;18.614;2023-06-22T15:14:22;19.67;;;6.78;;
80921;SDS011;70374;46.156;18.614;2023-06-22T15:17:24;17.23;;;6.62;;
80921;SDS011;70374;46.156;18.614;2023-06-22T15:20:31;14.73;;;6.50;;
80921;SDS011;70374;46.156;18.614;2023-06-22T15:23:34;11.75;;;5.95;;
80921;SDS011;70374;46.156;18.614;2023-06-22T15:26:36;18.17;;;6.37;;
80921;SDS011;70374;46.156;18.614;2023-06-22T15:29:39;15.65;;;6.97;;
80921;SDS011;70374;46.156;18.614;2023-06-22T15:32:43;14.18;;;6.50;;
80921;SDS011;70374;46.156;18.614;2023-06-22T15:35:47;17.23;;;6.80;;
80921;SDS011;70374;46.156;18.614;2023-06-22T15:38:49;19.02;;;7.37;;
80921;SDS011;70374;46.156;18.614;2023-06-22T15:41:52;20.65;;;6.82;;
80921;SDS011;70374;46.156;18.614;2023-06-22T15:44:59;14.02;;;7.12;;
80921;SDS011;70374;46.156;18.614;2023-06-22T15:48:02;15.85;;;7.10;;
80921;SDS011;70374;46.156;18.614;2023-06-22T15:51:05;13.27;;;6.47;;
80921;SDS011;70374;46.156;18.614;2023-06-22T15:54:07;18.27;;;6.97;;
80921;SDS011;70374;46.156;18.614;2023-06-22T15:57:10;17.67;;;7.57;;
80921;SDS011;70374;46.156;18.614;2023-06-22T16:00:16;15.93;;;6.97;;
80921;SDS011;70374;46.156;18.614;2023-06-22T16:03:20;21.35;;;7.60;;
80921;SDS011;70374;46.156;18.614;2023-06-22T16:06:22;17.90;;;7.53;;
80921;SDS011;70374;46.156;18.614;2023-06-22T16:09:25;16.80;;;6.18;;
80921;SDS011;70374;46.156;18.614;2023-06-22T16:12:29;15.32;;;6.45;;
80921;SDS011;70374;46.156;18.614;2023-06-22T16:15:31;13.25;;;7.25;;
80921;SDS011;70374;46.156;18.614;2023-06-22T16:18:34;23.55;;;7.82;;
80921;SDS011;70374;46.156;18.614;2023-06-22T16:21:37;21.93;;;8.33;;
80921;SDS011;70374;46.156;18.614;2023-06-22T16:24:39;19.42;;;7.62;;
80921;SDS011;70374;46.156;18.614;2023-06-22T16:27:43;17.30;;;7.80;;
80921;SDS011;70374;46.156;18.614;2023-06-22T16:30:47;16.00;;;7.07;;
80921;SDS011;70374;46.156;18.614;2023-06-22T16:33:50;19.83;;;7.82;;
80921;SDS011;70374;46.156;18.614;2023-06-22T16:36:53;16.13;;;8.10;;
80921;SDS011;70374;46.156;18.614;2023-06-22T16:39:56;21.40;;;7.55;;
80921;SDS011;70374;46.156;18.614;2023-06-22T16:42:59;18.20;;;7.43;;
80921;SDS011;70374;46.156;18.614;2023-06-22T16:46:02;16.25;;;7.60;;
80921;SDS011;70374;46.156;18.614;2023-06-22T16:49:04;20.15;;;7.95;;
80921;SDS011;70374;46.156;18.614;2023-06-22T16:52:07;19.60;;;8.50;;
80921;SDS011;70374;46.156;18.614;2023-06-22T16:55:10;19.80;;;7.53;;
80921;SDS011;70374;46.156;18.614;2023-06-22T16:58:13;19.02;;;8.10;;
80921;SDS011;70374;46.156;18.614;2023-06-22T17:01:19;18.80;;;8.23;;
80921;SDS011;70374;46.156;18.614;2023-06-22T17:04:24;24.83;;;8.18;;
80921;SDS011;70374;46.156;18.614;2023-06-22T17:07:28;24.13;;;8.60;;
80921;SDS011;70374;46.156;18.614;2023-06-22T17:10:35;19.05;;;8.43;;
80921;SDS011;70374;46.156;18.614;2023-06-22T17:13:38;24.52;;;8.30;;
80921;SDS011;70374;46.156;18.614;2023-06-22T17:16:41;18.62;;;8.00;;
80921;SDS011;70374;46.156;18.614;2023-06-22T17:19:45;24.05;;;8.85;;
80921;SDS011;70374;46.156;18.614;2023-06-22T17:22:50;18.73;;;8.90;;
80921;SDS011;70374;46.156;18.614;2023-06-22T17:25:53;20.62;;;8.60;;
80921;SDS011;70374;46.156;18.614;2023-06-22T17:28:57;21.15;;;8.27;;
80921;SDS011;70374;46.156;18.614;2023-06-22T17:32:05;18.15;;;8.77;;
80921;SDS011;70374;46.156;18.614;2023-06-22T17:35:09;24.73;;;8.48;;
80921;SDS011;70374;46.156;18.614;2023-06-22T17:38:18;20.07;;;9.17;;
80921;SDS011;70374;46.156;18.614;2023-06-22T17:41:28;29.70;;;9.18;;
80921;SDS011;70374;46.156;18.614;2023-06-22T17:44:34;20.70;;;7.95;;
80921;SDS011;70374;46.156;18.614;2023-06-22T17:47:37;20.88;;;9.05;;
80921;SDS011;70374;46.156;18.614;2023-06-22T17:50:41;31.80;;;9.38;;
80921;SDS011;70374;46.156;18.614;2023-06-22T17:53:47;17.30;;;8.20;;
80921;SDS011;70374;46.156;18.614;2023-06-22T17:56:51;23.23;;;8.45;;
80921;SDS011;70374;46.156;18.614;2023-06-22T17:59:54;18.05;;;8.63;;